AAY19H PANC-PAJN
Flight info
| Callsign | AAY19H |
|---|---|
| Flight time | 1h 22m |
| Altitude | 37000 |
| Route | JOH J501 YAK FAKES ASORT |
| Aircraft | A320/M-SDE3FGHIRWY/LB1 |
Departure
| Time | 2026-04-10 14:07 |
|---|---|
| Airport | Ted Stevens Anchorage International Airport (PANC) |
Arrival
| Time | 2026-04-10 15:29 |
|---|---|
| Airport | Juneau International Airport (PAJN) |
| Time | Latitude | Longitude | Altitude | Speed | Heading |
|---|---|---|---|---|---|
| 2026-04-10 13:44 | 61.17458 | -149.99077 | 106 ft | 0 kts | 70° |
| 2026-04-10 13:59 | 61.17458 | -149.99075 | 106 ft | 1 kts | 70° |
| 2026-04-10 13:59 | 61.17461 | -149.99058 | 104 ft | 2 kts | 70° |
| 2026-04-10 13:59 | 61.17466 | -149.99022 | 105 ft | 3 kts | 79° |
| 2026-04-10 13:59 | 61.17465 | -149.98989 | 105 ft | 1 kts | 100° |
| 2026-04-10 14:00 | 61.17461 | -149.98970 | 105 ft | 3 kts | 114° |
| 2026-04-10 14:00 | 61.17438 | -149.98931 | 106 ft | 7 kts | 154° |
| 2026-04-10 14:00 | 61.17363 | -149.98894 | 107 ft | 14 kts | 191° |
| 2026-04-10 14:00 | 61.17313 | -149.99041 | 110 ft | 8 kts | 251° |
| 2026-04-10 14:01 | 61.17309 | -149.99063 | 109 ft | 0 kts | 251° |
| 2026-04-10 14:02 | 61.17299 | -149.99110 | 112 ft | 7 kts | 240° |
| 2026-04-10 14:02 | 61.17260 | -149.99141 | 111 ft | 6 kts | 175° |
| 2026-04-10 14:02 | 61.17226 | -149.99125 | 112 ft | 0 kts | 166° |
| 2026-04-10 14:04 | 61.17225 | -149.99125 | 112 ft | 0 kts | 166° |
| 2026-04-10 14:04 | 61.17206 | -149.99114 | 112 ft | 5 kts | 165° |
| 2026-04-10 14:04 | 61.17152 | -149.99085 | 114 ft | 11 kts | 168° |
| 2026-04-10 14:05 | 61.16993 | -149.99298 | 124 ft | 19 kts | 237° |
| 2026-04-10 14:05 | 61.16978 | -149.99627 | 129 ft | 27 kts | 270° |
| 2026-04-10 14:05 | 61.16988 | -150.00022 | 132 ft | 24 kts | 297° |
| 2026-04-10 14:05 | 61.17092 | -150.00132 | 135 ft | 13 kts | 347° |
| 2026-04-10 14:06 | 61.17124 | -150.00000 | 133 ft | 17 kts | 90° |
| 2026-04-10 14:06 | 61.17186 | -149.99877 | 132 ft | 8 kts | 347° |
| 2026-04-10 14:06 | 61.17325 | -149.99970 | 127 ft | 48 kts | 344° |
| 2026-04-10 14:06 | 61.17886 | -150.00284 | 121 ft | 116 kts | 345° |
| 2026-04-10 14:07 | 61.18830 | -150.00817 | 183 ft | 160 kts | 345° |
| 2026-04-10 14:07 | 61.19877 | -150.01508 | 879 ft | 157 kts | 333° |
| 2026-04-10 14:07 | 61.20814 | -150.02687 | 1574 ft | 159 kts | 324° |
| 2026-04-10 14:07 | 61.21722 | -150.04013 | 2143 ft | 165 kts | 323° |
| 2026-04-10 14:08 | 61.22741 | -150.05465 | 2468 ft | 189 kts | 325° |
| 2026-04-10 14:08 | 61.23896 | -150.07084 | 2833 ft | 212 kts | 325° |
| 2026-04-10 14:08 | 61.25189 | -150.08880 | 3295 ft | 232 kts | 326° |
| 2026-04-10 14:08 | 61.26555 | -150.10768 | 4062 ft | 238 kts | 326° |
| 2026-04-10 14:09 | 61.27952 | -150.12645 | 4904 ft | 241 kts | 332° |
| 2026-04-10 14:09 | 61.29582 | -150.13346 | 5681 ft | 246 kts | 8° |
| 2026-04-10 14:09 | 61.31117 | -150.11834 | 6462 ft | 250 kts | 41° |
| 2026-04-10 14:09 | 61.32354 | -150.09321 | 7223 ft | 254 kts | 45° |
| 2026-04-10 14:10 | 61.33577 | -150.06611 | 7979 ft | 259 kts | 46° |
| 2026-04-10 14:10 | 61.34727 | -150.03675 | 8734 ft | 265 kts | 61° |
| 2026-04-10 14:10 | 61.35219 | -149.99922 | 9509 ft | 271 kts | 89° |
| 2026-04-10 14:10 | 61.34843 | -149.96053 | 9978 ft | 288 kts | 118° |
| 2026-04-10 14:11 | 61.33595 | -149.92664 | 10303 ft | 306 kts | 134° |
| 2026-04-10 14:11 | 61.32057 | -149.89264 | 10526 ft | 330 kts | 135° |
| 2026-04-10 14:11 | 61.30439 | -149.85735 | 10695 ft | 353 kts | 135° |
| 2026-04-10 14:11 | 61.28701 | -149.81933 | 11002 ft | 369 kts | 135° |
| 2026-04-10 14:12 | 61.27097 | -149.77701 | 11586 ft | 377 kts | 121° |
| 2026-04-10 14:12 | 61.26042 | -149.72666 | 12211 ft | 383 kts | 106° |
| 2026-04-10 14:12 | 61.25361 | -149.67280 | 12859 ft | 388 kts | 104° |
| 2026-04-10 14:12 | 61.24674 | -149.61815 | 13509 ft | 393 kts | 104° |
| 2026-04-10 14:13 | 61.24030 | -149.56254 | 14159 ft | 398 kts | 102° |
| 2026-04-10 14:13 | 61.23452 | -149.50616 | 14711 ft | 402 kts | 101° |
| 2026-04-10 14:13 | 61.22906 | -149.44908 | 15296 ft | 405 kts | 100° |
| 2026-04-10 14:13 | 61.22366 | -149.39133 | 15878 ft | 408 kts | 100° |
| 2026-04-10 14:14 | 61.21823 | -149.33330 | 16436 ft | 412 kts | 99° |
| 2026-04-10 14:14 | 61.21281 | -149.27482 | 17000 ft | 415 kts | 99° |
| 2026-04-10 14:14 | 61.20732 | -149.21590 | 17543 ft | 418 kts | 99° |
| 2026-04-10 14:14 | 61.20171 | -149.15652 | 18092 ft | 421 kts | 99° |
| 2026-04-10 14:15 | 61.19599 | -149.09674 | 18618 ft | 424 kts | 99° |
| 2026-04-10 14:15 | 61.19017 | -149.03659 | 19080 ft | 427 kts | 99° |
| 2026-04-10 14:15 | 61.18425 | -148.97616 | 19497 ft | 430 kts | 99° |
| 2026-04-10 14:15 | 61.17830 | -148.91584 | 19929 ft | 433 kts | 99° |
| 2026-04-10 14:16 | 61.17222 | -148.85453 | 20354 ft | 436 kts | 99° |
| 2026-04-10 14:16 | 61.16610 | -148.79295 | 20800 ft | 439 kts | 100° |
| 2026-04-10 14:16 | 61.15991 | -148.73072 | 21237 ft | 442 kts | 99° |
| 2026-04-10 14:16 | 61.15366 | -148.66826 | 21658 ft | 445 kts | 100° |
| 2026-04-10 14:17 | 61.14730 | -148.60544 | 22079 ft | 448 kts | 99° |
| 2026-04-10 14:17 | 61.14081 | -148.54211 | 22511 ft | 451 kts | 101° |
| 2026-04-10 14:17 | 61.13136 | -148.47981 | 22883 ft | 457 kts | 110° |
| 2026-04-10 14:17 | 61.11724 | -148.42054 | 23276 ft | 461 kts | 120° |
| 2026-04-10 14:18 | 61.09919 | -148.36524 | 23660 ft | 465 kts | 124° |
| 2026-04-10 14:18 | 61.08055 | -148.31045 | 23992 ft | 467 kts | 124° |
| 2026-04-10 14:18 | 61.06179 | -148.25513 | 24292 ft | 470 kts | 124° |
| 2026-04-10 14:18 | 61.04304 | -148.19974 | 24611 ft | 473 kts | 124° |
| 2026-04-10 14:19 | 61.02412 | -148.14385 | 24904 ft | 475 kts | 124° |
| 2026-04-10 14:19 | 61.00511 | -148.08786 | 25204 ft | 478 kts | 124° |
| 2026-04-10 14:19 | 60.98600 | -148.03185 | 25506 ft | 481 kts | 124° |
| 2026-04-10 14:19 | 60.96670 | -147.97537 | 25769 ft | 484 kts | 124° |
| 2026-04-10 14:20 | 60.94714 | -147.91833 | 26043 ft | 487 kts | 124° |
| 2026-04-10 14:20 | 60.92754 | -147.86139 | 26328 ft | 489 kts | 124° |
| 2026-04-10 14:20 | 60.90781 | -147.80417 | 26595 ft | 492 kts | 124° |
| 2026-04-10 14:20 | 60.88821 | -147.74746 | 26865 ft | 494 kts | 124° |
| 2026-04-10 14:21 | 60.86822 | -147.68986 | 27105 ft | 497 kts | 124° |
| 2026-04-10 14:21 | 60.84813 | -147.63204 | 27369 ft | 499 kts | 124° |
| 2026-04-10 14:21 | 60.82792 | -147.57394 | 27635 ft | 501 kts | 124° |
| 2026-04-10 14:21 | 60.80764 | -147.51577 | 27915 ft | 503 kts | 124° |
| 2026-04-10 14:22 | 60.78722 | -147.45730 | 28183 ft | 505 kts | 123° |
| 2026-04-10 14:22 | 60.76674 | -147.39885 | 28519 ft | 505 kts | 124° |
| 2026-04-10 14:22 | 60.74618 | -147.34039 | 28881 ft | 505 kts | 124° |
| 2026-04-10 14:22 | 60.72567 | -147.28220 | 29232 ft | 505 kts | 124° |
| 2026-04-10 14:23 | 60.70510 | -147.22398 | 29584 ft | 505 kts | 124° |
| 2026-04-10 14:23 | 60.68452 | -147.16590 | 29919 ft | 505 kts | 124° |
| 2026-04-10 14:23 | 60.66388 | -147.10786 | 30262 ft | 506 kts | 124° |
| 2026-04-10 14:23 | 60.64317 | -147.04981 | 30558 ft | 506 kts | 124° |
| 2026-04-10 14:24 | 60.62245 | -146.99188 | 30869 ft | 506 kts | 124° |
| 2026-04-10 14:24 | 60.60173 | -146.93402 | 31140 ft | 506 kts | 123° |
| 2026-04-10 14:24 | 60.58095 | -146.87612 | 31412 ft | 507 kts | 123° |
| 2026-04-10 14:24 | 60.56013 | -146.81817 | 31710 ft | 507 kts | 123° |
| 2026-04-10 14:25 | 60.53931 | -146.76033 | 32013 ft | 507 kts | 123° |
| 2026-04-10 14:25 | 60.51848 | -146.70264 | 32323 ft | 506 kts | 123° |
| 2026-04-10 14:25 | 60.49881 | -146.64374 | 32624 ft | 503 kts | 116° |
| 2026-04-10 14:25 | 60.48314 | -146.58084 | 32923 ft | 498 kts | 108° |
| 2026-04-10 14:26 | 60.47183 | -146.51501 | 33221 ft | 491 kts | 99° |
| 2026-04-10 14:26 | 60.46418 | -146.44778 | 33526 ft | 489 kts | 96° |
| 2026-04-10 14:26 | 60.45684 | -146.38059 | 33908 ft | 488 kts | 96° |
| 2026-04-10 14:26 | 60.44951 | -146.31449 | 34258 ft | 486 kts | 96° |
| 2026-04-10 14:27 | 60.44205 | -146.24792 | 34551 ft | 484 kts | 96° |
| 2026-04-10 14:27 | 60.43452 | -146.18167 | 34868 ft | 483 kts | 97° |
| 2026-04-10 14:27 | 60.42693 | -146.11536 | 35090 ft | 484 kts | 97° |
| 2026-04-10 14:27 | 60.41931 | -146.04901 | 35339 ft | 484 kts | 97° |
| 2026-04-10 14:28 | 60.41167 | -145.98270 | 35537 ft | 483 kts | 97° |
| 2026-04-10 14:28 | 60.40404 | -145.91637 | 35775 ft | 483 kts | 97° |
| 2026-04-10 14:28 | 60.39643 | -145.85020 | 36002 ft | 483 kts | 97° |
| 2026-04-10 14:28 | 60.38879 | -145.78402 | 36228 ft | 483 kts | 97° |
| 2026-04-10 14:29 | 60.38113 | -145.71807 | 36476 ft | 482 kts | 97° |
| 2026-04-10 14:29 | 60.37343 | -145.65227 | 36781 ft | 479 kts | 97° |
| 2026-04-10 14:29 | 60.36569 | -145.58687 | 37033 ft | 478 kts | 97° |
| 2026-04-10 14:29 | 60.35794 | -145.52160 | 37175 ft | 479 kts | 97° |
| 2026-04-10 14:30 | 60.35014 | -145.45617 | 37184 ft | 480 kts | 97° |
| 2026-04-10 14:30 | 60.33436 | -145.32502 | 37185 ft | 481 kts | 98° |
| 2026-04-10 14:31 | 60.31844 | -145.19386 | 37183 ft | 481 kts | 98° |
| 2026-04-10 14:31 | 60.30247 | -145.06291 | 37182 ft | 481 kts | 98° |
| 2026-04-10 14:32 | 60.28638 | -144.93238 | 37171 ft | 479 kts | 98° |
| 2026-04-10 14:32 | 60.27021 | -144.80215 | 37170 ft | 479 kts | 98° |
| 2026-04-10 14:33 | 60.25386 | -144.67225 | 37205 ft | 478 kts | 98° |
| 2026-04-10 14:33 | 60.23749 | -144.54246 | 37188 ft | 478 kts | 98° |
| 2026-04-10 14:34 | 60.22105 | -144.41295 | 37179 ft | 477 kts | 98° |
| 2026-04-10 14:34 | 60.21291 | -144.34990 | 37194 ft | 465 kts | 98° |
| 2026-04-10 14:34 | 60.20485 | -144.28807 | 37161 ft | 450 kts | 98° |
| 2026-04-10 14:35 | 60.18921 | -144.16820 | 37166 ft | 438 kts | 97° |
| 2026-04-10 14:35 | 60.17393 | -144.05068 | 37193 ft | 431 kts | 97° |
| 2026-04-10 14:35 | 60.16638 | -143.99305 | 37330 ft | 424 kts | 97° |
| 2026-04-10 14:36 | 60.15888 | -143.93613 | 37415 ft | 422 kts | 97° |
| 2026-04-10 14:36 | 60.15130 | -143.87825 | 37156 ft | 434 kts | 97° |
| 2026-04-10 14:36 | 60.14359 | -143.81932 | 37168 ft | 439 kts | 98° |
| 2026-04-10 14:37 | 60.12765 | -143.69952 | 37167 ft | 449 kts | 98° |
| 2026-04-10 14:37 | 60.11116 | -143.57710 | 37166 ft | 460 kts | 98° |
| 2026-04-10 14:38 | 60.09417 | -143.45232 | 37166 ft | 469 kts | 99° |
| 2026-04-10 14:38 | 60.07676 | -143.32544 | 37166 ft | 474 kts | 99° |
| 2026-04-10 14:39 | 60.05912 | -143.19799 | 37157 ft | 475 kts | 99° |
| 2026-04-10 14:39 | 60.04136 | -143.07041 | 37157 ft | 475 kts | 99° |
| 2026-04-10 14:40 | 60.02353 | -142.94309 | 37157 ft | 475 kts | 99° |
| 2026-04-10 14:40 | 60.00555 | -142.81603 | 37157 ft | 475 kts | 99° |
| 2026-04-10 14:41 | 59.98741 | -142.68910 | 37156 ft | 475 kts | 99° |
| 2026-04-10 14:41 | 59.96926 | -142.56229 | 37155 ft | 475 kts | 99° |
| 2026-04-10 14:42 | 59.95103 | -142.43630 | 37151 ft | 475 kts | 99° |
| 2026-04-10 14:42 | 59.93255 | -142.30968 | 37146 ft | 476 kts | 99° |
| 2026-04-10 14:43 | 59.91388 | -142.18300 | 37145 ft | 476 kts | 99° |
| 2026-04-10 14:43 | 59.89510 | -142.05652 | 37152 ft | 476 kts | 99° |
| 2026-04-10 14:44 | 59.87627 | -141.93019 | 37154 ft | 476 kts | 99° |
| 2026-04-10 14:44 | 59.85733 | -141.80376 | 37155 ft | 476 kts | 99° |
| 2026-04-10 14:45 | 59.83815 | -141.67755 | 37175 ft | 477 kts | 99° |
| 2026-04-10 14:45 | 59.81887 | -141.55133 | 37155 ft | 477 kts | 99° |
| 2026-04-10 14:46 | 59.79945 | -141.42511 | 37153 ft | 478 kts | 99° |
| 2026-04-10 14:46 | 59.77992 | -141.29894 | 37155 ft | 478 kts | 100° |
| 2026-04-10 14:47 | 59.76028 | -141.17296 | 37157 ft | 478 kts | 100° |
| 2026-04-10 14:47 | 59.74386 | -141.06832 | 37155 ft | 478 kts | 100° |
| 2026-04-10 14:48 | 59.72394 | -140.94250 | 37202 ft | 479 kts | 100° |
| 2026-04-10 14:48 | 59.70386 | -140.81667 | 37159 ft | 479 kts | 100° |
| 2026-04-10 14:49 | 59.68369 | -140.69103 | 37158 ft | 479 kts | 100° |
| 2026-04-10 14:49 | 59.66343 | -140.56539 | 37152 ft | 479 kts | 100° |
| 2026-04-10 14:50 | 59.64307 | -140.43992 | 37152 ft | 479 kts | 100° |
| 2026-04-10 14:50 | 59.62256 | -140.31463 | 37147 ft | 478 kts | 101° |
| 2026-04-10 14:51 | 59.60187 | -140.18976 | 37151 ft | 478 kts | 101° |
| 2026-04-10 14:51 | 59.58117 | -140.06504 | 37149 ft | 478 kts | 101° |
| 2026-04-10 14:52 | 59.56036 | -139.94043 | 37147 ft | 478 kts | 101° |
| 2026-04-10 14:52 | 59.53936 | -139.81601 | 37146 ft | 478 kts | 101° |
| 2026-04-10 14:53 | 59.51822 | -139.69161 | 37135 ft | 478 kts | 102° |
| 2026-04-10 14:53 | 59.48997 | -139.57191 | 37166 ft | 487 kts | 112° |
| 2026-04-10 14:54 | 59.45746 | -139.45497 | 37163 ft | 487 kts | 112° |
| 2026-04-10 14:54 | 59.42504 | -139.33912 | 37156 ft | 487 kts | 112° |
| 2026-04-10 14:55 | 59.39237 | -139.22258 | 37150 ft | 487 kts | 113° |
| 2026-04-10 14:55 | 59.35967 | -139.10635 | 37144 ft | 486 kts | 114° |
| 2026-04-10 14:56 | 59.32693 | -138.99068 | 37136 ft | 485 kts | 114° |
| 2026-04-10 14:56 | 59.29405 | -138.87527 | 37132 ft | 485 kts | 114° |
| 2026-04-10 14:57 | 59.26111 | -138.76009 | 37127 ft | 485 kts | 114° |
| 2026-04-10 14:57 | 59.22809 | -138.64505 | 37153 ft | 485 kts | 115° |
| 2026-04-10 14:58 | 59.19497 | -138.53054 | 37135 ft | 483 kts | 115° |
| 2026-04-10 14:58 | 59.16180 | -138.41657 | 37120 ft | 483 kts | 116° |
| 2026-04-10 14:59 | 59.12862 | -138.30288 | 37127 ft | 483 kts | 116° |
| 2026-04-10 14:59 | 59.09540 | -138.18933 | 37128 ft | 483 kts | 116° |
| 2026-04-10 15:00 | 59.06202 | -138.07599 | 37136 ft | 483 kts | 117° |
| 2026-04-10 15:00 | 59.02857 | -137.96297 | 37131 ft | 482 kts | 117° |
| 2026-04-10 15:01 | 58.99505 | -137.85019 | 37130 ft | 483 kts | 117° |
| 2026-04-10 15:01 | 58.96138 | -137.73764 | 37127 ft | 482 kts | 117° |
| 2026-04-10 15:02 | 58.92786 | -137.62607 | 37138 ft | 482 kts | 117° |
| 2026-04-10 15:02 | 58.89402 | -137.51389 | 37000 ft | 483 kts | 117° |
| 2026-04-10 15:02 | 58.87698 | -137.45751 | 36010 ft | 489 kts | 117° |
| 2026-04-10 15:03 | 58.85971 | -137.40053 | 35111 ft | 495 kts | 117° |
| 2026-04-10 15:03 | 58.84221 | -137.34298 | 34326 ft | 497 kts | 116° |
| 2026-04-10 15:03 | 58.82463 | -137.28533 | 33431 ft | 498 kts | 116° |
| 2026-04-10 15:03 | 58.80701 | -137.22777 | 32491 ft | 500 kts | 116° |
| 2026-04-10 15:04 | 58.78924 | -137.16994 | 31623 ft | 501 kts | 116° |
| 2026-04-10 15:04 | 58.77146 | -137.11221 | 30753 ft | 499 kts | 116° |
| 2026-04-10 15:04 | 58.75381 | -137.05508 | 29186 ft | 496 kts | 116° |
| 2026-04-10 15:04 | 58.73615 | -136.99801 | 27407 ft | 495 kts | 119° |
| 2026-04-10 15:05 | 58.70068 | -136.88376 | 24814 ft | 495 kts | 120° |
| 2026-04-10 15:05 | 58.68298 | -136.82698 | 23826 ft | 494 kts | 120° |
| 2026-04-10 15:05 | 58.66548 | -136.77101 | 22922 ft | 487 kts | 120° |
| 2026-04-10 15:06 | 58.64815 | -136.71569 | 22175 ft | 478 kts | 120° |
| 2026-04-10 15:06 | 58.63104 | -136.66109 | 21288 ft | 474 kts | 120° |
| 2026-04-10 15:06 | 58.61423 | -136.60757 | 20501 ft | 466 kts | 120° |
| 2026-04-10 15:06 | 58.59762 | -136.55475 | 19821 ft | 459 kts | 120° |
| 2026-04-10 15:07 | 58.58114 | -136.50243 | 19060 ft | 455 kts | 121° |
| 2026-04-10 15:07 | 58.56491 | -136.45096 | 18289 ft | 451 kts | 121° |
| 2026-04-10 15:07 | 58.54879 | -136.40003 | 17629 ft | 443 kts | 121° |
| 2026-04-10 15:07 | 58.53282 | -136.34971 | 16785 ft | 440 kts | 121° |
| 2026-04-10 15:08 | 58.51707 | -136.30023 | 16157 ft | 432 kts | 121° |
| 2026-04-10 15:08 | 58.50153 | -136.25159 | 15581 ft | 425 kts | 121° |
| 2026-04-10 15:08 | 58.48620 | -136.20386 | 15024 ft | 418 kts | 120° |
| 2026-04-10 15:08 | 58.47115 | -136.15699 | 14452 ft | 411 kts | 120° |
| 2026-04-10 15:09 | 58.45652 | -136.11143 | 13909 ft | 405 kts | 120° |
| 2026-04-10 15:09 | 58.44189 | -136.06592 | 13312 ft | 399 kts | 120° |
| 2026-04-10 15:09 | 58.42731 | -136.02058 | 12723 ft | 393 kts | 120° |
| 2026-04-10 15:09 | 58.41329 | -135.97715 | 12135 ft | 387 kts | 120° |
| 2026-04-10 15:10 | 58.39903 | -135.93308 | 11505 ft | 383 kts | 120° |
| 2026-04-10 15:10 | 58.38529 | -135.89025 | 10965 ft | 376 kts | 119° |
| 2026-04-10 15:10 | 58.37214 | -135.84737 | 10367 ft | 371 kts | 118° |
| 2026-04-10 15:10 | 58.36131 | -135.80578 | 10163 ft | 339 kts | 103° |
| 2026-04-10 15:11 | 58.36020 | -135.76358 | 10039 ft | 305 kts | 79° |
| 2026-04-10 15:11 | 58.36317 | -135.72531 | 9860 ft | 282 kts | 84° |
| 2026-04-10 15:11 | 58.36347 | -135.68867 | 9362 ft | 274 kts | 89° |
| 2026-04-10 15:11 | 58.36308 | -135.65274 | 8748 ft | 269 kts | 89° |
| 2026-04-10 15:12 | 58.36294 | -135.61735 | 8133 ft | 265 kts | 88° |
| 2026-04-10 15:12 | 58.36293 | -135.58240 | 7528 ft | 262 kts | 88° |
| 2026-04-10 15:12 | 58.36295 | -135.54820 | 7132 ft | 252 kts | 87° |
| 2026-04-10 15:12 | 58.36293 | -135.51435 | 7136 ft | 258 kts | 88° |
| 2026-04-10 15:13 | 58.36280 | -135.48016 | 7198 ft | 258 kts | 88° |
| 2026-04-10 15:13 | 58.36267 | -135.44565 | 7463 ft | 261 kts | 88° |
| 2026-04-10 15:13 | 58.36263 | -135.41240 | 7707 ft | 241 kts | 88° |
| 2026-04-10 15:13 | 58.36256 | -135.38007 | 7968 ft | 249 kts | 88° |
| 2026-04-10 15:14 | 58.36242 | -135.34748 | 8229 ft | 245 kts | 88° |
| 2026-04-10 15:14 | 58.36229 | -135.31493 | 8348 ft | 249 kts | 88° |
| 2026-04-10 15:14 | 58.36218 | -135.28213 | 8040 ft | 246 kts | 88° |
| 2026-04-10 15:14 | 58.36210 | -135.24973 | 7678 ft | 245 kts | 88° |
| 2026-04-10 15:15 | 58.36203 | -135.21728 | 7305 ft | 245 kts | 88° |
| 2026-04-10 15:15 | 58.36190 | -135.18469 | 6926 ft | 247 kts | 89° |
| 2026-04-10 15:15 | 58.36172 | -135.15197 | 6552 ft | 247 kts | 88° |
| 2026-04-10 15:15 | 58.36155 | -135.11928 | 6165 ft | 246 kts | 88° |
| 2026-04-10 15:16 | 58.36138 | -135.08670 | 5774 ft | 244 kts | 88° |
| 2026-04-10 15:16 | 58.36120 | -135.05439 | 5402 ft | 244 kts | 88° |
| 2026-04-10 15:16 | 58.36107 | -135.02219 | 5030 ft | 243 kts | 88° |
| 2026-04-10 15:16 | 58.36088 | -134.99051 | 4653 ft | 234 kts | 88° |
| 2026-04-10 15:17 | 58.36060 | -134.96022 | 4304 ft | 227 kts | 88° |
| 2026-04-10 15:17 | 58.36038 | -134.93015 | 3958 ft | 228 kts | 88° |
| 2026-04-10 15:17 | 58.36017 | -134.89982 | 3604 ft | 229 kts | 89° |
| 2026-04-10 15:17 | 58.35997 | -134.86955 | 3242 ft | 225 kts | 88° |
| 2026-04-10 15:18 | 58.35979 | -134.84019 | 2896 ft | 218 kts | 89° |
| 2026-04-10 15:18 | 58.35958 | -134.81167 | 2567 ft | 212 kts | 89° |
| 2026-04-10 15:18 | 58.35938 | -134.78431 | 2246 ft | 201 kts | 89° |
| 2026-04-10 15:18 | 58.35923 | -134.75860 | 1968 ft | 185 kts | 89° |
| 2026-04-10 15:19 | 58.35905 | -134.73506 | 1660 ft | 171 kts | 89° |
| 2026-04-10 15:19 | 58.35890 | -134.71356 | 1441 ft | 156 kts | 89° |
| 2026-04-10 15:19 | 58.35879 | -134.69345 | 1161 ft | 149 kts | 86° |
| 2026-04-10 15:19 | 58.35919 | -134.67441 | 1606 ft | 143 kts | 87° |
| 2026-04-10 15:20 | 58.35907 | -134.65593 | 2360 ft | 138 kts | 89° |
| 2026-04-10 15:20 | 58.35884 | -134.63644 | 2678 ft | 158 kts | 90° |
| 2026-04-10 15:20 | 58.35823 | -134.61444 | 3103 ft | 172 kts | 92° |
| 2026-04-10 15:20 | 58.35706 | -134.59116 | 3523 ft | 182 kts | 93° |
| 2026-04-10 15:21 | 58.35853 | -134.56612 | 3694 ft | 203 kts | 64° |
| 2026-04-10 15:21 | 58.36827 | -134.54556 | 3949 ft | 220 kts | 29° |
| 2026-04-10 15:21 | 58.38329 | -134.53925 | 4752 ft | 227 kts | 356° |
| 2026-04-10 15:21 | 58.39865 | -134.54620 | 4996 ft | 226 kts | 342° |
| 2026-04-10 15:22 | 58.41257 | -134.55860 | 5010 ft | 223 kts | 328° |
| 2026-04-10 15:22 | 58.42309 | -134.58014 | 5013 ft | 226 kts | 301° |
| 2026-04-10 15:22 | 58.42866 | -134.60834 | 5012 ft | 229 kts | 286° |
| 2026-04-10 15:22 | 58.43203 | -134.63814 | 5013 ft | 230 kts | 283° |
| 2026-04-10 15:23 | 58.43503 | -134.66824 | 5016 ft | 231 kts | 283° |
| 2026-04-10 15:23 | 58.43786 | -134.69785 | 5013 ft | 221 kts | 282° |
| 2026-04-10 15:23 | 58.44076 | -134.72583 | 5008 ft | 208 kts | 285° |
| 2026-04-10 15:23 | 58.44440 | -134.75195 | 5057 ft | 197 kts | 287° |
| 2026-04-10 15:24 | 58.44798 | -134.77657 | 4765 ft | 189 kts | 287° |
| 2026-04-10 15:24 | 58.45144 | -134.80009 | 4413 ft | 179 kts | 287° |
| 2026-04-10 15:24 | 58.45354 | -134.82276 | 4111 ft | 170 kts | 266° |
| 2026-04-10 15:24 | 58.44973 | -134.84347 | 3855 ft | 164 kts | 233° |
| 2026-04-10 15:25 | 58.44104 | -134.85668 | 3680 ft | 160 kts | 201° |
| 2026-04-10 15:25 | 58.43014 | -134.85942 | 3577 ft | 161 kts | 169° |
| 2026-04-10 15:25 | 58.42003 | -134.85083 | 3329 ft | 160 kts | 136° |
| 2026-04-10 15:25 | 58.41324 | -134.83461 | 3170 ft | 155 kts | 122° |
| 2026-04-10 15:26 | 58.40704 | -134.81795 | 3083 ft | 154 kts | 122° |
| 2026-04-10 15:26 | 58.40081 | -134.80138 | 3014 ft | 153 kts | 122° |
| 2026-04-10 15:26 | 58.39461 | -134.78491 | 3014 ft | 153 kts | 123° |
| 2026-04-10 15:26 | 58.38838 | -134.76840 | 3013 ft | 153 kts | 123° |
| 2026-04-10 15:27 | 58.38220 | -134.75182 | 3015 ft | 153 kts | 120° |
| 2026-04-10 15:27 | 58.37711 | -134.73359 | 2715 ft | 158 kts | 109° |
| 2026-04-10 15:27 | 58.37390 | -134.71358 | 2355 ft | 158 kts | 102° |
| 2026-04-10 15:27 | 58.37111 | -134.69332 | 1977 ft | 156 kts | 102° |
| 2026-04-10 15:28 | 58.36843 | -134.67369 | 1565 ft | 154 kts | 101° |
| 2026-04-10 15:28 | 58.36577 | -134.65416 | 1182 ft | 151 kts | 103° |
| 2026-04-10 15:28 | 58.36308 | -134.63485 | 783 ft | 149 kts | 102° |
| 2026-04-10 15:28 | 58.36047 | -134.61638 | 525 ft | 142 kts | 103° |
| 2026-04-10 15:29 | 58.35800 | -134.59839 | 118 ft | 139 kts | 103° |
| 2026-04-10 15:29 | 58.35577 | -134.58136 | 35 ft | 121 kts | 104° |
| 2026-04-10 15:29 | 58.35391 | -134.56888 | 35 ft | 73 kts | 105° |
| 2026-04-10 15:29 | 58.35304 | -134.56263 | 35 ft | 29 kts | 104° |
| 2026-04-10 15:30 | 58.35243 | -134.55833 | 33 ft | 41 kts | 105° |
| 2026-04-10 15:30 | 58.35193 | -134.55341 | 33 ft | 25 kts | 65° |
| 2026-04-10 15:30 | 58.35273 | -134.55322 | 33 ft | 16 kts | 324° |
| 2026-04-10 15:30 | 58.35326 | -134.55612 | 34 ft | 27 kts | 284° |
| 2026-04-10 15:31 | 58.35375 | -134.55968 | 34 ft | 28 kts | 284° |
| 2026-04-10 15:31 | 58.35425 | -134.56329 | 34 ft | 28 kts | 285° |
| 2026-04-10 15:31 | 58.35476 | -134.56694 | 34 ft | 29 kts | 285° |
| 2026-04-10 15:31 | 58.35530 | -134.57073 | 33 ft | 30 kts | 285° |
| 2026-04-10 15:32 | 58.35582 | -134.57445 | 34 ft | 28 kts | 285° |
| 2026-04-10 15:32 | 58.35630 | -134.57796 | 34 ft | 23 kts | 285° |
| 2026-04-10 15:32 | 58.35662 | -134.58025 | 34 ft | 19 kts | 285° |
| 2026-04-10 15:32 | 58.35694 | -134.58255 | 34 ft | 11 kts | 284° |
| 2026-04-10 15:33 | 58.35706 | -134.58341 | 34 ft | 10 kts | 284° |
| 2026-04-10 15:33 | 58.35722 | -134.58458 | 34 ft | 8 kts | 285° |
| 2026-04-10 15:33 | 58.35736 | -134.58558 | 33 ft | 7 kts | 285° |
| 2026-04-10 15:33 | 58.35747 | -134.58638 | 34 ft | 6 kts | 285° |
| 2026-04-10 15:34 | 58.35759 | -134.58718 | 34 ft | 4 kts | 285° |
| 2026-04-10 15:34 | 58.35765 | -134.58762 | 34 ft | 3 kts | 284° |
| 2026-04-10 15:34 | 58.35768 | -134.58785 | 34 ft | 2 kts | 284° |
| 2026-04-10 15:34 | 58.35770 | -134.58799 | 32 ft | 0 kts | 284° |